Time;durP1;ratioP1;P1;durP2;ratioP2;P2;SDS_P1;SDS_P2;PMS_P1;PMS_P2;Temp;Humidity;BMP_temperature;BMP_pressure;BME280_temperature;BME280_humidity;BME280_pressure;Samples;Min_cycle;Max_cycle;Signal;HPM_P1;HPM_P2
2023/01/08 00:01:48;;;;;;;6.00;4.75;;;;;;;;;;5115588;28;20047;-54
2023/01/08 00:04:16;;;;;;;6.40;4.15;;;;;;;;;;5115614;28;20051;-57
2023/01/08 00:06:42;;;;;;;5.38;4.10;;;;;;;;;;5115726;28;20028;-57
2023/01/08 00:09:09;;;;;;;5.38;4.05;;;;;;;;;;5116232;28;20110;-57
2023/01/08 00:11:35;;;;;;;5.72;4.53;;;;;;;;;;5115980;28;20102;-57
2023/01/08 00:14:01;;;;;;;4.45;3.50;;;;;;;;;;5116114;28;20070;-55
2023/01/08 00:16:27;;;;;;;6.68;4.15;;;;;;;;;;5115544;28;20035;-57
2023/01/08 00:18:53;;;;;;;8.43;5.05;;;;;;;;;;5115832;28;20476;-57
2023/01/08 00:21:19;;;;;;;8.05;3.15;;;;;;;;;;5115076;28;20028;-57
2023/01/08 00:23:45;;;;;;;5.35;4.53;;;;;;;;;;5115512;28;20028;-55
2023/01/08 00:26:13;;;;;;;6.57;4.18;;;;;;;;;;5115993;28;20019;-57
2023/01/08 00:28:39;;;;;;;5.47;3.90;;;;;;;;;;5115357;28;20031;-57
2023/01/08 00:31:06;;;;;;;6.05;4.28;;;;;;;;;;5115279;28;20032;-57
2023/01/08 00:33:32;;;;;;;7.60;4.90;;;;;;;;;;5115255;28;20517;-57
2023/01/08 00:35:58;;;;;;;4.53;3.83;;;;;;;;;;5116068;28;20030;-58
2023/01/08 00:38:25;;;;;;;4.57;3.85;;;;;;;;;;5115497;28;20035;-56
2023/01/08 00:40:51;;;;;;;6.15;4.50;;;;;;;;;;5115019;28;20028;-56
2023/01/08 00:43:17;;;;;;;6.88;4.75;;;;;;;;;;5115080;28;20027;-57
2023/01/08 00:45:43;;;;;;;7.63;4.45;;;;;;;;;;5115291;28;20076;-57
2023/01/08 00:48:10;;;;;;;4.97;4.25;;;;;;;;;;5114594;28;20031;-57
2023/01/08 00:50:36;;;;;;;7.28;4.93;;;;;;;;;;5115188;28;20028;-57
2023/01/08 00:53:02;;;;;;;5.63;3.63;;;;;;;;;;5114934;28;20403;-57
2023/01/08 00:55:28;;;;;;;5.53;3.97;;;;;;;;;;5115214;28;20116;-57
2023/01/08 00:57:56;;;;;;;5.95;4.45;;;;;;;;;;5114551;28;20538;-57
2023/01/08 01:00:22;;;;;;;7.65;4.85;;;;;;;;;;5114618;28;20044;-57
2023/01/08 01:02:48;;;;;;;7.15;5.53;;;;;;;;;;5114806;28;20067;-56
2023/01/08 01:05:15;;;;;;;4.72;3.65;;;;;;;;;;5114705;28;20024;-57
2023/01/08 01:07:42;;;;;;;4.30;3.67;;;;;;;;;;5114619;28;20039;-55
2023/01/08 01:10:08;;;;;;;7.03;4.47;;;;;;;;;;5114665;28;20106;-57
2023/01/08 01:12:36;;;;;;;4.72;4.03;;;;;;;;;;5114824;28;20043;-57
2023/01/08 01:15:02;;;;;;;7.07;4.72;;;;;;;;;;5114917;28;20077;-56
2023/01/08 01:17:28;;;;;;;6.03;4.78;;;;;;;;;;5114978;28;20043;-56
2023/01/08 01:19:54;;;;;;;7.88;4.65;;;;;;;;;;5114957;28;20444;-55
2023/01/08 01:22:20;;;;;;;7.70;4.75;;;;;;;;;;5114625;28;20031;-57
2023/01/08 01:24:46;;;;;;;8.13;5.38;;;;;;;;;;5115283;28;20023;-56
2023/01/08 01:27:12;;;;;;;6.15;3.92;;;;;;;;;;5115120;28;20456;-57
2023/01/08 01:29:38;;;;;;;7.03;3.95;;;;;;;;;;5114352;28;20024;-57
2023/01/08 01:32:04;;;;;;;6.18;4.50;;;;;;;;;;5114318;28;20023;-57
2023/01/08 01:34:30;;;;;;;5.82;4.57;;;;;;;;;;5114642;28;20468;-56
2023/01/08 01:36:56;;;;;;;5.30;4.65;;;;;;;;;;5113897;28;20019;-56
2023/01/08 01:39:22;;;;;;;5.15;4.65;;;;;;;;;;5114149;28;20107;-57
2023/01/08 01:41:49;;;;;;;6.03;4.50;;;;;;;;;;5114427;28;20089;-56
2023/01/08 01:44:34;;;;;;;7.43;4.65;;;;;;;;;;5114464;28;20030;-56
2023/01/08 01:47:02;;;;;;;7.20;5.10;;;;;;;;;;5113818;28;20063;-57
2023/01/08 01:49:28;;;;;;;6.03;4.45;;;;;;;;;;5114132;28;20032;-57
2023/01/08 01:51:56;;;;;;;8.10;4.80;;;;;;;;;;5113748;28;20497;-56
2023/01/08 01:54:22;;;;;;;6.72;5.22;;;;;;;;;;5114690;28;20396;-55
2023/01/08 01:56:48;;;;;;;5.20;4.20;;;;;;;;;;5114579;28;20028;-57
2023/01/08 01:59:15;;;;;;;6.35;4.13;;;;;;;;;;5114087;28;20152;-54
2023/01/08 02:01:41;;;;;;;4.70;3.83;;;;;;;;;;5113826;28;20047;-57
2023/01/08 02:04:13;;;;;;;6.05;4.63;;;;;;;;;;5114357;28;20446;-57
2023/01/08 02:06:55;;;;;;;5.80;4.07;;;;;;;;;;5095594;28;20458;-57
2023/01/08 02:09:43;;;;;;;4.55;3.97;;;;;;;;;;5114269;28;20076;-57
2023/01/08 02:12:17;;;;;;;4.68;3.40;;;;;;;;;;5114235;28;20024;-57
2023/01/08 02:15:01;;;;;;;5.28;4.22;;;;;;;;;;5114463;28;20024;-57
2023/01/08 02:17:47;;;;;;;5.30;4.00;;;;;;;;;;5113609;28;20476;-57
2023/01/08 02:20:26;;;;;;;4.88;4.00;;;;;;;;;;5096477;28;20035;-57
2023/01/08 02:22:58;;;;;;;4.82;3.60;;;;;;;;;;5113845;28;20035;-56
2023/01/08 02:25:38;;;;;;;6.78;4.53;;;;;;;;;;5114386;28;20023;-57
2023/01/08 02:28:11;;;;;;;3.92;3.17;;;;;;;;;;5118003;28;20354;-53
2023/01/08 02:30:38;;;;;;;5.60;4.35;;;;;;;;;;5117646;28;20096;-55
2023/01/08 02:33:04;;;;;;;5.00;4.32;;;;;;;;;;5117611;28;20062;-57
2023/01/08 02:35:56;;;;;;;5.43;4.22;;;;;;;;;;5117632;28;20019;-57
2023/01/08 02:38:23;;;;;;;5.72;4.10;;;;;;;;;;5078543;28;20478;-57
2023/01/08 02:40:53;;;;;;;4.75;3.72;;;;;;;;;;5117924;28;20342;-57
2023/01/08 02:43:27;;;;;;;4.05;3.33;;;;;;;;;;5118072;28;20062;-57
2023/01/08 02:45:55;;;;;;;4.20;3.75;;;;;;;;;;5117738;28;20027;-57
2023/01/08 02:48:33;;;;;;;8.18;4.25;;;;;;;;;;5117323;28;20058;-57
2023/01/08 02:51:02;;;;;;;4.45;3.25;;;;;;;;;;5117340;28;20059;-57
2023/01/08 02:53:30;;;;;;;5.47;4.47;;;;;;;;;;5117103;28;20039;-57
2023/01/08 02:55:59;;;;;;;5.00;3.60;;;;;;;;;;5117550;28;20024;-55
2023/01/08 02:58:26;;;;;;;5.32;2.95;;;;;;;;;;5116895;28;20030;-57
2023/01/08 03:00:53;;;;;;;5.63;4.13;;;;;;;;;;5116949;28;20042;-57
2023/01/08 03:03:26;;;;;;;5.40;3.70;;;;;;;;;;5117300;28;20477;-53
2023/01/08 03:05:54;;;;;;;4.90;4.22;;;;;;;;;;5116992;28;20034;-56
2023/01/08 03:08:20;;;;;;;5.30;4.03;;;;;;;;;;5117473;28;20028;-52
2023/01/08 03:10:49;;;;;;;4.13;3.00;;;;;;;;;;5116903;28;20031;-53
2023/01/08 03:13:18;;;;;;;4.50;3.67;;;;;;;;;;5116770;28;20027;-56
2023/01/08 03:15:51;;;;;;;8.05;4.97;;;;;;;;;;5116507;28;20016;-55
2023/01/08 03:18:19;;;;;;;6.43;4.75;;;;;;;;;;5117358;28;20024;-57
2023/01/08 03:20:46;;;;;;;7.63;3.47;;;;;;;;;;5116594;28;20073;-56
2023/01/08 03:23:13;;;;;;;5.50;3.63;;;;;;;;;;5116687;28;20038;-53
2023/01/08 03:25:41;;;;;;;5.15;3.47;;;;;;;;;;5117255;28;20159;-57
2023/01/08 03:28:11;;;;;;;4.65;3.50;;;;;;;;;;5116275;28;20465;-55
2023/01/08 03:30:39;;;;;;;5.72;3.95;;;;;;;;;;5116775;28;20090;-55
2023/01/08 03:33:06;;;;;;;5.65;3.92;;;;;;;;;;5116973;28;20023;-54
2023/01/08 03:35:33;;;;;;;4.63;3.70;;;;;;;;;;5116497;28;20071;-57
2023/01/08 03:38:31;;;;;;;3.95;3.22;;;;;;;;;;5116271;28;20124;-54
2023/01/08 03:40:59;;;;;;;4.47;3.45;;;;;;;;;;5060557;28;20466;-56
2023/01/08 03:43:25;;;;;;;4.50;3.60;;;;;;;;;;5115907;28;20038;-55
2023/01/08 03:45:55;;;;;;;4.38;3.10;;;;;;;;;;5116773;28;20020;-56
2023/01/08 03:48:22;;;;;;;5.22;3.08;;;;;;;;;;5116456;28;20458;-56
2023/01/08 03:50:48;;;;;;;3.33;2.17;;;;;;;;;;5116421;28;20080;-56
2023/01/08 03:53:14;;;;;;;7.00;4.43;;;;;;;;;;5116405;28;20015;-56
2023/01/08 03:55:40;;;;;;;4.93;3.20;;;;;;;;;;5116055;28;20065;-58
2023/01/08 03:58:06;;;;;;;4.85;3.45;;;;;;;;;;5116559;28;20024;-55
2023/01/08 04:00:32;;;;;;;4.93;3.42;;;;;;;;;;5115707;28;20036;-55
2023/01/08 04:02:58;;;;;;;4.97;3.47;;;;;;;;;;5116052;28;20048;-55
2023/01/08 04:05:24;;;;;;;5.25;3.42;;;;;;;;;;5116135;28;20023;-55
2023/01/08 04:07:50;;;;;;;6.65;3.85;;;;;;;;;;5115822;28;20508;-57
2023/01/08 04:10:16;;;;;;;4.97;3.38;;;;;;;;;;5115782;28;20031;-53
2023/01/08 04:12:45;;;;;;;7.20;3.90;;;;;;;;;;5115900;28;20024;-57
2023/01/08 04:15:11;;;;;;;6.80;4.22;;;;;;;;;;5115895;28;20080;-54
2023/01/08 04:17:37;;;;;;;6.13;4.38;;;;;;;;;;5115633;28;20019;-54
2023/01/08 04:20:03;;;;;;;6.13;4.70;;;;;;;;;;5115486;28;20160;-55
2023/01/08 04:22:29;;;;;;;4.85;3.00;;;;;;;;;;5115440;28;20028;-54
2023/01/08 04:24:55;;;;;;;4.90;3.95;;;;;;;;;;5116058;28;20030;-57
2023/01/08 04:27:21;;;;;;;6.43;2.72;;;;;;;;;;5097686;28;20023;-55
2023/01/08 04:29:47;;;;;;;4.22;3.50;;;;;;;;;;5115944;28;20028;-55
2023/01/08 04:32:13;;;;;;;4.88;3.25;;;;;;;;;;5115119;28;20034;-58
2023/01/08 04:34:39;;;;;;;4.70;3.47;;;;;;;;;;5115675;28;20077;-56
2023/01/08 04:37:05;;;;;;;6.60;4.18;;;;;;;;;;5115334;28;20504;-56
2023/01/08 04:39:31;;;;;;;4.35;3.28;;;;;;;;;;5115218;28;20069;-55
2023/01/08 04:41:57;;;;;;;4.97;4.43;;;;;;;;;;5115659;28;20070;-54
2023/01/08 04:44:22;;;;;;;8.07;3.42;;;;;;;;;;5115228;28;20438;-56
2023/01/08 04:46:48;;;;;;;4.50;3.15;;;;;;;;;;5115306;28;20106;-57
2023/01/08 04:49:14;;;;;;;6.40;4.25;;;;;;;;;;5114547;28;20024;-56
2023/01/08 04:51:40;;;;;;;4.65;3.08;;;;;;;;;;5115244;28;20028;-57
2023/01/08 04:54:06;;;;;;;4.22;2.85;;;;;;;;;;5115265;28;20020;-55
2023/01/08 04:56:32;;;;;;;4.80;3.20;;;;;;;;;;5115203;28;20106;-55
2023/01/08 04:58:58;;;;;;;3.92;2.78;;;;;;;;;;5114873;28;20030;-57
2023/01/08 05:01:26;;;;;;;4.35;2.53;;;;;;;;;;5114667;28;20110;-55
2023/01/08 05:03:53;;;;;;;3.38;2.10;;;;;;;;;;5114774;28;20171;-57
2023/01/08 05:06:19;;;;;;;5.85;2.00;;;;;;;;;;5115372;28;20437;-56
2023/01/08 05:08:45;;;;;;;3.55;2.13;;;;;;;;;;5115209;28;20030;-57
2023/01/08 05:11:11;;;;;;;2.97;1.42;;;;;;;;;;5114724;28;20024;-55
2023/01/08 05:13:37;;;;;;;2.60;1.88;;;;;;;;;;5114605;28;20020;-55
2023/01/08 05:16:03;;;;;;;2.25;1.48;;;;;;;;;;5115173;28;20042;-57
2023/01/08 05:18:29;;;;;;;5.85;1.50;;;;;;;;;;5114591;28;20032;-57
2023/01/08 05:20:59;;;;;;;2.63;1.25;;;;;;;;;;5114405;28;20031;-57
2023/01/08 05:23:25;;;;;;;2.67;1.27;;;;;;;;;;5114501;28;20024;-56
2023/01/08 05:25:51;;;;;;;2.42;1.23;;;;;;;;;;5114495;28;20024;-57
2023/01/08 05:28:17;;;;;;;4.00;1.70;;;;;;;;;;5114414;28;20081;-57
2023/01/08 05:30:43;;;;;;;1.50;0.95;;;;;;;;;;5114441;28;20035;-56
2023/01/08 05:33:09;;;;;;;2.08;1.02;;;;;;;;;;5114436;28;20023;-57
2023/01/08 05:35:35;;;;;;;1.35;0.75;;;;;;;;;;5114872;28;20020;-56
2023/01/08 05:38:01;;;;;;;2.40;1.13;;;;;;;;;;5114067;28;20102;-55
2023/01/08 05:40:27;;;;;;;1.17;0.80;;;;;;;;;;5113962;28;20072;-57
2023/01/08 05:42:53;;;;;;;1.92;1.33;;;;;;;;;;5114563;28;20028;-56
2023/01/08 05:45:19;;;;;;;2.65;1.50;;;;;;;;;;5114577;28;20026;-57
2023/01/08 05:47:45;;;;;;;1.52;1.02;;;;;;;;;;5113899;28;20028;-57
2023/01/08 05:50:11;;;;;;;1.77;1.05;;;;;;;;;;5114188;28;20024;-57
2023/01/08 05:52:37;;;;;;;4.25;1.00;;;;;;;;;;5114151;28;20062;-57
2023/01/08 05:55:03;;;;;;;2.03;1.23;;;;;;;;;;5114517;28;20446;-56
2023/01/08 05:57:29;;;;;;;1.45;0.68;;;;;;;;;;5114468;28;20353;-52
2023/01/08 05:59:55;;;;;;;1.20;0.75;;;;;;;;;;5114674;28;20084;-57
2023/01/08 06:02:20;;;;;;;2.45;1.48;;;;;;;;;;5116766;28;20039;-56
2023/01/08 06:04:46;;;;;;;1.75;0.90;;;;;;;;;;5118334;28;20027;-56
2023/01/08 06:07:12;;;;;;;1.80;1.00;;;;;;;;;;5118231;28;20115;-57
2023/01/08 06:09:38;;;;;;;1.60;1.10;;;;;;;;;;5118210;28;20034;-57
2023/01/08 06:12:04;;;;;;;2.03;1.05;;;;;;;;;;5118461;28;20472;-57
2023/01/08 06:14:30;;;;;;;1.58;0.90;;;;;;;;;;5118485;28;20099;-57
2023/01/08 06:16:56;;;;;;;4.15;1.02;;;;;;;;;;5118510;28;20050;-56
2023/01/08 06:19:22;;;;;;;1.90;1.02;;;;;;;;;;5118257;28;20034;-57
2023/01/08 06:21:48;;;;;;;1.70;0.90;;;;;;;;;;5117802;28;20027;-57
2023/01/08 06:24:14;;;;;;;2.00;1.00;;;;;;;;;;5117531;28;20038;-57
2023/01/08 06:26:40;;;;;;;2.10;0.93;;;;;;;;;;5117758;28;20114;-55
2023/01/08 06:29:07;;;;;;;1.50;0.73;;;;;;;;;;5117728;28;20016;-57
2023/01/08 06:31:33;;;;;;;1.27;0.88;;;;;;;;;;5118277;28;20028;-57
2023/01/08 06:33:59;;;;;;;1.75;0.77;;;;;;;;;;5118216;28;20153;-57
2023/01/08 06:36:25;;;;;;;1.10;0.50;;;;;;;;;;5118155;28;20051;-57
2023/01/08 06:38:51;;;;;;;1.58;0.90;;;;;;;;;;5117855;28;20031;-57
2023/01/08 06:41:17;;;;;;;3.15;0.93;;;;;;;;;;5117240;28;20359;-57
2023/01/08 06:43:43;;;;;;;1.35;0.90;;;;;;;;;;5117960;28;20031;-57
2023/01/08 06:46:09;;;;;;;1.30;0.70;;;;;;;;;;5118058;28;20023;-56
2023/01/08 06:48:35;;;;;;;0.63;0.43;;;;;;;;;;5117456;28;20035;-57
2023/01/08 06:51:02;;;;;;;1.30;0.80;;;;;;;;;;5117432;28;20376;-56
2023/01/08 06:53:28;;;;;;;1.90;0.73;;;;;;;;;;5117282;28;20408;-57
2023/01/08 06:55:55;;;;;;;3.25;0.85;;;;;;;;;;5117895;28;20050;-56
2023/01/08 06:58:22;;;;;;;1.23;0.68;;;;;;;;;;5117934;28;20094;-57
2023/01/08 07:00:47;;;;;;;2.17;0.75;;;;;;;;;;5117034;28;20419;-58
2023/01/08 07:03:13;;;;;;;3.30;1.02;;;;;;;;;;5117334;28;20043;-58
2023/01/08 07:05:40;;;;;;;1.02;0.60;;;;;;;;;;5117379;28;20048;-57
2023/01/08 07:08:09;;;;;;;1.83;0.95;;;;;;;;;;5117082;28;20042;-57
2023/01/08 07:10:35;;;;;;;1.70;1.00;;;;;;;;;;5117550;28;20034;-57
2023/01/08 07:13:01;;;;;;;1.08;0.63;;;;;;;;;;5116494;28;20032;-56
2023/01/08 07:15:27;;;;;;;1.70;0.80;;;;;;;;;;5117503;28;20114;-56
2023/01/08 07:17:53;;;;;;;0.70;0.40;;;;;;;;;;5116874;28;20027;-57
2023/01/08 07:20:19;;;;;;;1.02;0.45;;;;;;;;;;5116759;28;20082;-57
2023/01/08 07:22:45;;;;;;;1.85;0.73;;;;;;;;;;5116814;28;20023;-57
2023/01/08 07:25:11;;;;;;;2.20;1.17;;;;;;;;;;5116818;28;20027;-57
2023/01/08 07:27:37;;;;;;;0.95;0.70;;;;;;;;;;5116615;28;20028;-57
2023/01/08 07:30:03;;;;;;;1.05;0.63;;;;;;;;;;5116832;28;20454;-57
2023/01/08 07:32:29;;;;;;;1.60;1.00;;;;;;;;;;5116800;28;20334;-57
2023/01/08 07:34:58;;;;;;;1.52;0.80;;;;;;;;;;5117433;28;20043;-57
2023/01/08 07:37:25;;;;;;;1.48;0.50;;;;;;;;;;5116457;28;20031;-57
2023/01/08 07:39:52;;;;;;;1.55;0.90;;;;;;;;;;5116361;28;20062;-56
2023/01/08 07:42:18;;;;;;;1.88;0.55;;;;;;;;;;5116301;28;20460;-57
2023/01/08 07:44:44;;;;;;;0.52;0.28;;;;;;;;;;5116695;28;20051;-57
2023/01/08 07:47:10;;;;;;;0.98;0.40;;;;;;;;;;5115989;28;20059;-57
2023/01/08 07:49:36;;;;;;;1.17;0.70;;;;;;;;;;5098474;28;20019;-57
2023/01/08 07:52:02;;;;;;;1.35;0.55;;;;;;;;;;5116273;28;20418;-57
2023/01/08 07:54:28;;;;;;;5.30;0.63;;;;;;;;;;5116178;28;20414;-57
2023/01/08 07:56:54;;;;;;;0.77;0.50;;;;;;;;;;5116972;28;20027;-57
2023/01/08 07:59:20;;;;;;;1.65;0.90;;;;;;;;;;5116554;28;20024;-57
2023/01/08 08:01:46;;;;;;;1.50;0.80;;;;;;;;;;5115607;28;20485;-57
2023/01/08 08:04:14;;;;;;;1.20;0.50;;;;;;;;;;5116304;28;20074;-57
2023/01/08 08:06:40;;;;;;;0.50;0.30;;;;;;;;;;5097600;28;20019;-57
2023/01/08 08:09:06;;;;;;;1.20;0.60;;;;;;;;;;5115927;28;20106;-57
2023/01/08 08:11:32;;;;;;;1.98;0.82;;;;;;;;;;5115514;28;20031;-57
2023/01/08 08:13:58;;;;;;;1.83;0.50;;;;;;;;;;5115737;28;20035;-57
2023/01/08 08:16:23;;;;;;;0.90;0.50;;;;;;;;;;5115397;28;20023;-56
2023/01/08 08:18:49;;;;;;;0.88;0.45;;;;;;;;;;5097454;28;20077;-57
2023/01/08 08:21:15;;;;;;;1.40;0.73;;;;;;;;;;5115200;28;20409;-58
2023/01/08 08:23:41;;;;;;;3.85;1.35;;;;;;;;;;5114705;28;20024;-58
2023/01/08 08:26:07;;;;;;;1.42;0.93;;;;;;;;;;5116037;28;20062;-58
2023/01/08 08:28:33;;;;;;;1.38;0.70;;;;;;;;;;5115982;28;20077;-59
2023/01/08 08:30:59;;;;;;;1.48;0.60;;;;;;;;;;5115466;28;20027;-58
2023/01/08 08:33:25;;;;;;;1.15;0.70;;;;;;;;;;5115686;28;20107;-57
2023/01/08 08:35:51;;;;;;;1.98;1.15;;;;;;;;;;5115393;28;20031;-57
2023/01/08 08:38:17;;;;;;;0.77;0.35;;;;;;;;;;5115334;28;20031;-56
2023/01/08 08:40:43;;;;;;;1.35;0.60;;;;;;;;;;5115959;28;20032;-58
2023/01/08 08:43:10;;;;;;;2.30;1.20;;;;;;;;;;5114778;28;20028;-58
2023/01/08 08:45:36;;;;;;;1.48;0.82;;;;;;;;;;5115820;28;20023;-58
2023/01/08 08:48:02;;;;;;;1.65;0.90;;;;;;;;;;5115042;28;20377;-58
2023/01/08 08:50:28;;;;;;;1.67;1.10;;;;;;;;;;5115321;28;20031;-58
2023/01/08 08:52:58;;;;;;;1.38;0.50;;;;;;;;;;5115505;28;20027;-58
2023/01/08 08:55:24;;;;;;;1.33;0.45;;;;;;;;;;5115555;28;20030;-58
2023/01/08 08:57:50;;;;;;;2.92;0.70;;;;;;;;;;5114599;28;20031;-58
2023/01/08 09:00:16;;;;;;;1.45;0.73;;;;;;;;;;5114976;28;20030;-57
2023/01/08 09:02:42;;;;;;;1.83;0.73;;;;;;;;;;5115381;28;20139;-58
2023/01/08 09:05:08;;;;;;;2.25;1.05;;;;;;;;;;5115148;28;20089;-58
2023/01/08 09:07:34;;;;;;;1.50;0.98;;;;;;;;;;5114771;28;20031;-58
2023/01/08 09:10:00;;;;;;;0.82;0.52;;;;;;;;;;5114689;28;20398;-58
2023/01/08 09:12:26;;;;;;;1.10;0.73;;;;;;;;;;5115088;28;20058;-57
2023/01/08 09:14:53;;;;;;;2.53;1.10;;;;;;;;;;5115004;28;20369;-57
2023/01/08 09:17:20;;;;;;;1.85;1.10;;;;;;;;;;5114523;28;20161;-58
2023/01/08 09:19:46;;;;;;;1.45;1.10;;;;;;;;;;5115010;28;20027;-58
2023/01/08 09:22:12;;;;;;;0.88;0.50;;;;;;;;;;5114548;28;20381;-58
2023/01/08 09:24:38;;;;;;;5.28;0.93;;;;;;;;;;5114863;28;20472;-58
2023/01/08 09:27:04;;;;;;;2.03;0.90;;;;;;;;;;5114340;28;20019;-58
2023/01/08 09:29:30;;;;;;;2.60;0.95;;;;;;;;;;5114659;28;20024;-57
2023/01/08 09:31:59;;;;;;;1.15;0.57;;;;;;;;;;5114344;28;20035;-58
2023/01/08 09:34:25;;;;;;;1.55;0.75;;;;;;;;;;5114397;28;20027;-58
2023/01/08 09:36:51;;;;;;;0.95;0.60;;;;;;;;;;5114498;28;20077;-58
2023/01/08 09:39:17;;;;;;;1.42;0.65;;;;;;;;;;5114234;28;20027;-58
2023/01/08 09:41:47;;;;;;;2.40;0.88;;;;;;;;;;5114176;28;20354;-58
2023/01/08 09:44:18;;;;;;;2.27;1.80;;;;;;;;;;5115211;28;20391;-58
2023/01/08 09:46:45;;;;;;;1.20;0.52;;;;;;;;;;5114240;28;20398;-58
2023/01/08 09:49:15;;;;;;;0.80;0.40;;;;;;;;;;5114202;28;20350;-58
2023/01/08 09:51:41;;;;;;;0.82;0.52;;;;;;;;;;5114797;28;20065;-58
2023/01/08 09:54:10;;;;;;;1.73;0.70;;;;;;;;;;5114131;28;20152;-57
2023/01/08 09:56:37;;;;;;;1.40;0.95;;;;;;;;;;5095561;28;20081;-58
2023/01/08 09:59:03;;;;;;;1.83;0.88;;;;;;;;;;5114677;28;20028;-58
2023/01/08 10:01:31;;;;;;;0.85;0.40;;;;;;;;;;5113677;28;20038;-57
2023/01/08 10:03:59;;;;;;;0.95;0.40;;;;;;;;;;5113886;28;20469;-58
2023/01/08 10:06:25;;;;;;;1.70;0.50;;;;;;;;;;5113939;28;20023;-58
2023/01/08 10:08:52;;;;;;;0.88;0.43;;;;;;;;;;5113959;28;20076;-58
2023/01/08 10:11:18;;;;;;;1.77;0.70;;;;;;;;;;5114404;28;20118;-58
2023/01/08 10:13:49;;;;;;;1.13;0.55;;;;;;;;;;5113909;28;20020;-57
2023/01/08 10:16:19;;;;;;;1.45;0.60;;;;;;;;;;5114009;28;20024;-58
2023/01/08 10:18:45;;;;;;;1.63;0.68;;;;;;;;;;5114214;28;20020;-58
2023/01/08 10:21:13;;;;;;;1.33;0.52;;;;;;;;;;5113862;28;20030;-58
2023/01/08 10:23:48;;;;;;;2.08;0.90;;;;;;;;;;5113872;28;20036;-58
2023/01/08 10:26:24;;;;;;;1.67;0.88;;;;;;;;;;5114291;28;20449;-58
2023/01/08 10:28:50;;;;;;;1.00;0.52;;;;;;;;;;5113886;28;20028;-58
2023/01/08 10:31:16;;;;;;;0.98;0.57;;;;;;;;;;5113853;28;20034;-57
2023/01/08 10:33:43;;;;;;;1.48;0.57;;;;;;;;;;5114294;28;20030;-57
2023/01/08 10:36:11;;;;;;;2.20;0.47;;;;;;;;;;5114443;28;20039;-58
2023/01/08 10:38:41;;;;;;;0.75;0.40;;;;;;;;;;5113803;28;20039;-58
2023/01/08 10:41:10;;;;;;;0.87;0.43;;;;;;;;;;5114009;28;20036;-58
2023/01/08 10:43:48;;;;;;;1.10;0.55;;;;;;;;;;5113752;28;20438;-57
2023/01/08 10:46:21;;;;;;;1.00;0.35;;;;;;;;;;5113797;28;20058;-58
2023/01/08 10:48:50;;;;;;;0.73;0.50;;;;;;;;;;5117106;28;20030;-58
2023/01/08 10:51:24;;;;;;;0.65;0.43;;;;;;;;;;5117456;28;20103;-58
2023/01/08 10:53:50;;;;;;;1.08;0.40;;;;;;;;;;5117089;28;20028;-57
2023/01/08 10:56:18;;;;;;;1.10;0.65;;;;;;;;;;5117670;28;20028;-58
2023/01/08 10:58:44;;;;;;;1.42;0.63;;;;;;;;;;5117224;28;20020;-58
2023/01/08 11:01:12;;;;;;;1.35;0.73;;;;;;;;;;5116990;28;20031;-58
2023/01/08 11:03:38;;;;;;;0.68;0.25;;;;;;;;;;5118302;28;20051;-54
2023/01/08 11:06:17;;;;;;;0.82;0.40;;;;;;;;;;5117472;28;20484;-56
2023/01/08 11:08:50;;;;;;;0.60;0.28;;;;;;;;;;5117053;28;20458;-58
2023/01/08 11:11:16;;;;;;;0.57;0.43;;;;;;;;;;5117344;28;20028;-57
2023/01/08 11:13:49;;;;;;;1.65;0.30;;;;;;;;;;5116946;28;20028;-58
2023/01/08 11:16:15;;;;;;;0.93;0.28;;;;;;;;;;5116658;28;20023;-58
2023/01/08 11:18:46;;;;;;;1.58;0.75;;;;;;;;;;5116888;28;20050;-58
2023/01/08 11:21:19;;;;;;;1.20;0.50;;;;;;;;;;5116797;28;20477;-57
2023/01/08 11:23:46;;;;;;;1.58;0.70;;;;;;;;;;5116727;28;20050;-57
2023/01/08 11:26:15;;;;;;;0.63;0.30;;;;;;;;;;5117310;28;20038;-58
2023/01/08 11:28:59;;;;;;;1.92;0.70;;;;;;;;;;5116707;28;20095;-57
2023/01/08 11:31:33;;;;;;;2.28;0.80;;;;;;;;;;5116677;28;20104;-57
2023/01/08 11:34:05;;;;;;;0.70;0.32;;;;;;;;;;5116614;28;20023;-58
2023/01/08 11:36:35;;;;;;;1.17;0.57;;;;;;;;;;5116643;28;20051;-57
2023/01/08 11:39:02;;;;;;;1.17;0.43;;;;;;;;;;5116208;28;20480;-58
2023/01/08 11:41:31;;;;;;;0.80;0.40;;;;;;;;;;5116217;28;20035;-58
2023/01/08 11:44:35;;;;;;;0.70;0.38;;;;;;;;;;5116871;28;20035;-58
2023/01/08 11:47:04;;;;;;;0.70;0.30;;;;;;;;;;5013637;28;20435;-56
2023/01/08 11:49:36;;;;;;;0.88;0.38;;;;;;;;;;5013646;28;20475;-58
2023/01/08 11:52:15;;;;;;;1.45;0.60;;;;;;;;;;5068622;28;20433;-58
2023/01/08 11:54:48;;;;;;;0.88;0.40;;;;;;;;;;5116525;28;20028;-58
2023/01/08 11:57:23;;;;;;;0.90;0.47;;;;;;;;;;5116870;28;20032;-58
2023/01/08 12:00:01;;;;;;;1.13;0.65;;;;;;;;;;5114812;28;20030;-58
2023/01/08 12:02:27;;;;;;;1.25;0.47;;;;;;;;;;5115492;28;20056;-58
2023/01/08 12:05:16;;;;;;;1.30;0.57;;;;;;;;;;5116023;28;20019;-58
2023/01/08 12:08:00;;;;;;;1.02;0.43;;;;;;;;;;5116317;28;20032;-58
2023/01/08 12:10:26;;;;;;;1.45;0.40;;;;;;;;;;5115577;28;20481;-58
2023/01/08 12:13:01;;;;;;;0.65;0.35;;;;;;;;;;5115825;28;20111;-58
2023/01/08 12:15:35;;;;;;;1.02;0.40;;;;;;;;;;5116327;28;20050;-57
2023/01/08 12:18:12;;;;;;;1.42;0.75;;;;;;;;;;5116546;28;20032;-57
2023/01/08 12:20:49;;;;;;;1.40;0.70;;;;;;;;;;5115915;28;20119;-58
2023/01/08 12:23:34;;;;;;;2.10;0.75;;;;;;;;;;5116199;28;20064;-57
2023/01/08 12:26:19;;;;;;;1.55;0.60;;;;;;;;;;5115296;28;20493;-58
2023/01/08 12:28:54;;;;;;;0.88;0.35;;;;;;;;;;5115520;28;20027;-58
2023/01/08 12:31:20;;;;;;;0.60;0.30;;;;;;;;;;5115509;28;20034;-58
2023/01/08 12:33:50;;;;;;;1.08;0.43;;;;;;;;;;5115242;28;20111;-58
2023/01/08 12:36:18;;;;;;;1.77;0.70;;;;;;;;;;5097004;28;20047;-56
2023/01/08 12:38:50;;;;;;;0.32;0.15;;;;;;;;;;5115803;28;20385;-58
2023/01/08 12:41:18;;;;;;;0.90;0.40;;;;;;;;;;5115822;28;20436;-57
2023/01/08 12:44:03;;;;;;;0.70;0.30;;;;;;;;;;5097203;28;20043;-58
2023/01/08 12:46:33;;;;;;;0.75;0.40;;;;;;;;;;5115406;28;20373;-58
2023/01/08 12:48:59;;;;;;;0.85;0.52;;;;;;;;;;5115138;28;20019;-58
2023/01/08 12:51:28;;;;;;;1.13;0.40;;;;;;;;;;5115319;28;20073;-58
2023/01/08 12:54:09;;;;;;;1.17;0.43;;;;;;;;;;5115578;28;20023;-58
2023/01/08 12:56:35;;;;;;;0.80;0.32;;;;;;;;;;5115602;28;20126;-57
2023/01/08 12:59:01;;;;;;;0.45;0.20;;;;;;;;;;5114626;28;20485;-57
2023/01/08 13:01:32;;;;;;;1.20;0.40;;;;;;;;;;5114703;28;20036;-59
2023/01/08 13:03:58;;;;;;;0.88;0.50;;;;;;;;;;5115484;28;20168;-58
2023/01/08 13:06:24;;;;;;;1.15;0.57;;;;;;;;;;5114840;28;20024;-58
2023/01/08 13:08:51;;;;;;;1.30;0.63;;;;;;;;;;5115012;28;20112;-57
2023/01/08 13:11:39;;;;;;;1.80;0.60;;;;;;;;;;5114279;28;20068;-58
2023/01/08 13:14:07;;;;;;;1.02;0.30;;;;;;;;;;5114574;28;20372;-58
2023/01/08 13:16:38;;;;;;;1.33;0.40;;;;;;;;;;5114340;28;20020;-58
2023/01/08 13:19:04;;;;;;;;;;;;;;;;;;5115591;28;20143;-58
2023/01/08 13:21:32;;;;;;;0.47;0.35;;;;;;;;;;5114511;28;20318;-58
2023/01/08 13:24:00;;;;;;;1.35;0.60;;;;;;;;;;5114422;28;20112;-58
2023/01/08 13:26:30;;;;;;;1.55;0.38;;;;;;;;;;5114699;28;20032;-57
2023/01/08 13:29:05;;;;;;;1.13;0.60;;;;;;;;;;5114532;28;20019;-57
2023/01/08 13:31:38;;;;;;;2.35;0.80;;;;;;;;;;5114729;28;20035;-58
2023/01/08 13:34:17;;;;;;;0.85;0.40;;;;;;;;;;5114525;28;20020;-56
2023/01/08 13:36:54;;;;;;;6.50;0.80;;;;;;;;;;5114761;28;20023;-58
2023/01/08 13:39:24;;;;;;;1.00;0.40;;;;;;;;;;5114977;28;20023;-58
2023/01/08 13:41:56;;;;;;;0.65;0.35;;;;;;;;;;5114578;28;20042;-58
2023/01/08 13:44:22;;;;;;;0.88;0.35;;;;;;;;;;5096123;28;20435;-58
2023/01/08 13:46:54;;;;;;;1.08;0.50;;;;;;;;;;5114227;28;20107;-58
2023/01/08 13:49:40;;;;;;;1.23;0.30;;;;;;;;;;5114488;28;20483;-58
2023/01/08 13:52:06;;;;;;;1.38;0.70;;;;;;;;;;5114710;28;20024;-58
2023/01/08 13:54:42;;;;;;;1.92;0.57;;;;;;;;;;5114561;28;20369;-59
2023/01/08 13:57:13;;;;;;;1.55;0.75;;;;;;;;;;5114144;28;20023;-58
2023/01/08 13:59:41;;;;;;;0.82;0.40;;;;;;;;;;5114047;28;20024;-58
2023/01/08 14:02:21;;;;;;;1.08;0.55;;;;;;;;;;5113959;28;20425;-58
2023/01/08 14:04:50;;;;;;;0.80;0.50;;;;;;;;;;5114663;28;20043;-57
2023/01/08 14:07:16;;;;;;;0.82;0.25;;;;;;;;;;5114638;28;20020;-57
2023/01/08 14:09:42;;;;;;;0.55;0.22;;;;;;;;;;5114250;28;20019;-58
2023/01/08 14:12:19;;;;;;;0.80;0.38;;;;;;;;;;5095530;28;20495;-58
2023/01/08 14:14:47;;;;;;;0.13;0.10;;;;;;;;;;5114562;28;20027;-58
2023/01/08 14:17:16;;;;;;;0.82;0.22;;;;;;;;;;5114512;28;20081;-57
2023/01/08 14:19:42;;;;;;;1.17;0.52;;;;;;;;;;5113908;28;20020;-58
2023/01/08 14:22:13;;;;;;;0.55;0.25;;;;;;;;;;5114487;28;20067;-58
2023/01/08 14:24:39;;;;;;;;;;;;;;;;;;5118435;28;20027;-58
2023/01/08 14:27:05;;;;;;;0.52;0.20;;;;;;;;;;5118179;28;20406;-58
2023/01/08 14:29:33;;;;;;;0.43;0.20;;;;;;;;;;5117631;28;20102;-57
2023/01/08 14:32:00;;;;;;;0.45;0.20;;;;;;;;;;5118038;28;20032;-58
2023/01/08 14:34:27;;;;;;;1.95;0.40;;;;;;;;;;5117983;28;20019;-55
2023/01/08 14:36:54;;;;;;;0.95;0.50;;;;;;;;;;5117906;28;20108;-58
2023/01/08 14:39:25;;;;;;;0.68;0.30;;;;;;;;;;5117617;28;20048;-58
2023/01/08 14:44:38;;;;;;;0.73;0.30;;;;;;;;;;5117648;28;20034;-58
2023/01/08 14:47:04;;;;;;;0.90;0.50;;;;;;;;;;5117252;28;20522;-58
2023/01/08 14:49:33;;;;;;;1.35;0.55;;;;;;;;;;5117494;28;20058;-58
2023/01/08 14:52:00;;;;;;;0.43;0.20;;;;;;;;;;5117358;28;20393;-58
2023/01/08 14:54:28;;;;;;;0.60;0.25;;;;;;;;;;5117746;28;20020;-58